sensor_id;sensor_type;location;lat;lon;timestamp;P1;durP1;ratioP1;P2;durP2;ratioP2
73779;SDS011;62093;37.614;15.072;2023-07-16T00:02:14;10.02;;;7.10;;
73779;SDS011;62093;37.614;15.072;2023-07-16T00:04:40;9.87;;;6.83;;
73779;SDS011;62093;37.614;15.072;2023-07-16T00:07:06;10.10;;;7.07;;
73779;SDS011;62093;37.614;15.072;2023-07-16T00:09:32;9.90;;;6.70;;
73779;SDS011;62093;37.614;15.072;2023-07-16T00:11:58;10.57;;;6.93;;
73779;SDS011;62093;37.614;15.072;2023-07-16T00:14:23;10.45;;;7.10;;
73779;SDS011;62093;37.614;15.072;2023-07-16T00:16:49;10.43;;;7.07;;
73779;SDS011;62093;37.614;15.072;2023-07-16T00:19:15;10.13;;;6.50;;
73779;SDS011;62093;37.614;15.072;2023-07-16T00:21:41;10.32;;;7.57;;
73779;SDS011;62093;37.614;15.072;2023-07-16T00:24:06;9.63;;;6.47;;
73779;SDS011;62093;37.614;15.072;2023-07-16T00:26:32;9.60;;;6.63;;
73779;SDS011;62093;37.614;15.072;2023-07-16T00:28:58;10.55;;;6.85;;
73779;SDS011;62093;37.614;15.072;2023-07-16T00:31:25;11.68;;;7.10;;
73779;SDS011;62093;37.614;15.072;2023-07-16T00:33:51;10.00;;;6.80;;
73779;SDS011;62093;37.614;15.072;2023-07-16T00:36:17;10.43;;;6.88;;
73779;SDS011;62093;37.614;15.072;2023-07-16T00:38:43;10.40;;;6.90;;
73779;SDS011;62093;37.614;15.072;2023-07-16T00:41:12;9.45;;;6.57;;
73779;SDS011;62093;37.614;15.072;2023-07-16T00:43:38;10.40;;;7.20;;
73779;SDS011;62093;37.614;15.072;2023-07-16T00:46:04;10.18;;;6.28;;
73779;SDS011;62093;37.614;15.072;2023-07-16T00:48:30;9.83;;;6.90;;
73779;SDS011;62093;37.614;15.072;2023-07-16T00:50:56;9.75;;;6.63;;
73779;SDS011;62093;37.614;15.072;2023-07-16T00:53:22;9.70;;;6.70;;
73779;SDS011;62093;37.614;15.072;2023-07-16T00:55:48;9.25;;;6.25;;
73779;SDS011;62093;37.614;15.072;2023-07-16T00:58:14;10.10;;;6.60;;
73779;SDS011;62093;37.614;15.072;2023-07-16T01:00:40;10.43;;;6.68;;
73779;SDS011;62093;37.614;15.072;2023-07-16T01:03:11;9.50;;;6.45;;
73779;SDS011;62093;37.614;15.072;2023-07-16T01:05:49;10.15;;;7.10;;
73779;SDS011;62093;37.614;15.072;2023-07-16T01:08:20;9.93;;;6.53;;
73779;SDS011;62093;37.614;15.072;2023-07-16T01:10:53;10.50;;;6.53;;
73779;SDS011;62093;37.614;15.072;2023-07-16T01:13:20;9.88;;;6.68;;
73779;SDS011;62093;37.614;15.072;2023-07-16T01:15:46;10.00;;;6.70;;
73779;SDS011;62093;37.614;15.072;2023-07-16T01:18:13;9.33;;;6.27;;
73779;SDS011;62093;37.614;15.072;2023-07-16T01:20:38;10.73;;;6.72;;
73779;SDS011;62093;37.614;15.072;2023-07-16T01:29:21;9.47;;;6.10;;
73779;SDS011;62093;37.614;15.072;2023-07-16T01:32:05;10.85;;;6.40;;
73779;SDS011;62093;37.614;15.072;2023-07-16T01:34:35;9.52;;;6.43;;
73779;SDS011;62093;37.614;15.072;2023-07-16T01:37:02;11.27;;;6.70;;
73779;SDS011;62093;37.614;15.072;2023-07-16T01:39:29;9.50;;;6.22;;
73779;SDS011;62093;37.614;15.072;2023-07-16T01:41:56;10.27;;;6.40;;
73779;SDS011;62093;37.614;15.072;2023-07-16T01:44:22;9.27;;;6.40;;
73779;SDS011;62093;37.614;15.072;2023-07-16T01:46:49;9.05;;;6.72;;
73779;SDS011;62093;37.614;15.072;2023-07-16T01:49:29;9.68;;;6.32;;
73779;SDS011;62093;37.614;15.072;2023-07-16T01:51:54;10.37;;;6.53;;
73779;SDS011;62093;37.614;15.072;2023-07-16T01:54:20;9.45;;;6.13;;
73779;SDS011;62093;37.614;15.072;2023-07-16T01:56:46;9.43;;;6.80;;
73779;SDS011;62093;37.614;15.072;2023-07-16T01:59:12;9.20;;;5.90;;
73779;SDS011;62093;37.614;15.072;2023-07-16T02:01:38;10.00;;;6.57;;
73779;SDS011;62093;37.614;15.072;2023-07-16T02:04:04;9.80;;;6.40;;
73779;SDS011;62093;37.614;15.072;2023-07-16T02:06:29;8.82;;;6.00;;
73779;SDS011;62093;37.614;15.072;2023-07-16T02:08:55;9.43;;;6.25;;
73779;SDS011;62093;37.614;15.072;2023-07-16T02:11:21;9.80;;;6.57;;
73779;SDS011;62093;37.614;15.072;2023-07-16T02:13:47;9.68;;;6.47;;
73779;SDS011;62093;37.614;15.072;2023-07-16T02:16:13;9.70;;;6.50;;
73779;SDS011;62093;37.614;15.072;2023-07-16T02:18:39;9.23;;;6.15;;
73779;SDS011;62093;37.614;15.072;2023-07-16T02:21:05;9.20;;;6.60;;
73779;SDS011;62093;37.614;15.072;2023-07-16T02:23:31;10.07;;;6.53;;
73779;SDS011;62093;37.614;15.072;2023-07-16T02:25:57;9.37;;;6.17;;
73779;SDS011;62093;37.614;15.072;2023-07-16T02:28:23;10.02;;;6.93;;
73779;SDS011;62093;37.614;15.072;2023-07-16T02:30:49;10.23;;;6.68;;
73779;SDS011;62093;37.614;15.072;2023-07-16T02:33:15;9.90;;;6.83;;
73779;SDS011;62093;37.614;15.072;2023-07-16T02:35:45;9.95;;;6.47;;
73779;SDS011;62093;37.614;15.072;2023-07-16T02:38:15;10.23;;;6.38;;
73779;SDS011;62093;37.614;15.072;2023-07-16T02:40:44;9.82;;;6.55;;
73779;SDS011;62093;37.614;15.072;2023-07-16T02:43:11;10.10;;;6.70;;
73779;SDS011;62093;37.614;15.072;2023-07-16T02:45:37;9.93;;;5.77;;
73779;SDS011;62093;37.614;15.072;2023-07-16T02:48:04;9.10;;;6.30;;
73779;SDS011;62093;37.614;15.072;2023-07-16T02:50:34;9.75;;;6.63;;
73779;SDS011;62093;37.614;15.072;2023-07-16T02:53:01;9.18;;;6.22;;
73779;SDS011;62093;37.614;15.072;2023-07-16T02:55:28;9.85;;;6.25;;
73779;SDS011;62093;37.614;15.072;2023-07-16T02:57:54;10.80;;;6.30;;
73779;SDS011;62093;37.614;15.072;2023-07-16T03:00:20;10.10;;;6.57;;
73779;SDS011;62093;37.614;15.072;2023-07-16T03:02:46;9.48;;;6.75;;
73779;SDS011;62093;37.614;15.072;2023-07-16T03:05:12;9.57;;;6.53;;
73779;SDS011;62093;37.614;15.072;2023-07-16T03:07:37;9.27;;;5.82;;
73779;SDS011;62093;37.614;15.072;2023-07-16T03:10:03;9.20;;;6.43;;
73779;SDS011;62093;37.614;15.072;2023-07-16T03:12:29;9.38;;;6.47;;
73779;SDS011;62093;37.614;15.072;2023-07-16T03:14:55;9.00;;;6.18;;
73779;SDS011;62093;37.614;15.072;2023-07-16T03:17:21;9.40;;;6.47;;
73779;SDS011;62093;37.614;15.072;2023-07-16T03:19:50;10.63;;;6.28;;
73779;SDS011;62093;37.614;15.072;2023-07-16T03:22:16;10.30;;;6.03;;
73779;SDS011;62093;37.614;15.072;2023-07-16T03:24:42;9.37;;;6.10;;
73779;SDS011;62093;37.614;15.072;2023-07-16T03:27:08;8.23;;;5.90;;
73779;SDS011;62093;37.614;15.072;2023-07-16T03:29:34;10.30;;;6.70;;
73779;SDS011;62093;37.614;15.072;2023-07-16T03:32:00;9.90;;;6.28;;
73779;SDS011;62093;37.614;15.072;2023-07-16T03:34:28;8.85;;;5.60;;
73779;SDS011;62093;37.614;15.072;2023-07-16T03:36:53;9.27;;;6.27;;
73779;SDS011;62093;37.614;15.072;2023-07-16T03:39:19;9.55;;;6.60;;
73779;SDS011;62093;37.614;15.072;2023-07-16T03:41:45;10.57;;;5.97;;
73779;SDS011;62093;37.614;15.072;2023-07-16T03:44:11;9.67;;;6.10;;
73779;SDS011;62093;37.614;15.072;2023-07-16T03:46:37;9.40;;;6.07;;
73779;SDS011;62093;37.614;15.072;2023-07-16T03:49:06;11.68;;;5.82;;
73779;SDS011;62093;37.614;15.072;2023-07-16T03:51:33;10.65;;;6.55;;
73779;SDS011;62093;37.614;15.072;2023-07-16T03:53:58;10.40;;;6.60;;
73779;SDS011;62093;37.614;15.072;2023-07-16T03:56:24;9.35;;;5.85;;
73779;SDS011;62093;37.614;15.072;2023-07-16T03:58:50;9.23;;;6.00;;
73779;SDS011;62093;37.614;15.072;2023-07-16T04:01:16;9.03;;;6.20;;
73779;SDS011;62093;37.614;15.072;2023-07-16T04:03:42;9.75;;;6.00;;
73779;SDS011;62093;37.614;15.072;2023-07-16T04:06:08;9.33;;;5.97;;
73779;SDS011;62093;37.614;15.072;2023-07-16T04:08:35;9.40;;;5.95;;
73779;SDS011;62093;37.614;15.072;2023-07-16T04:11:02;9.18;;;5.90;;
73779;SDS011;62093;37.614;15.072;2023-07-16T04:13:29;9.93;;;6.28;;
73779;SDS011;62093;37.614;15.072;2023-07-16T04:15:55;10.20;;;5.90;;
73779;SDS011;62093;37.614;15.072;2023-07-16T04:18:22;8.73;;;5.43;;
73779;SDS011;62093;37.614;15.072;2023-07-16T04:20:52;8.80;;;5.93;;
73779;SDS011;62093;37.614;15.072;2023-07-16T04:23:18;9.07;;;5.82;;
73779;SDS011;62093;37.614;15.072;2023-07-16T04:25:45;9.40;;;5.88;;
73779;SDS011;62093;37.614;15.072;2023-07-16T04:28:12;8.97;;;6.07;;
73779;SDS011;62093;37.614;15.072;2023-07-16T04:30:37;9.02;;;5.72;;
73779;SDS011;62093;37.614;15.072;2023-07-16T04:33:04;9.00;;;6.40;;
73779;SDS011;62093;37.614;15.072;2023-07-16T04:35:30;8.98;;;5.93;;
73779;SDS011;62093;37.614;15.072;2023-07-16T04:37:56;9.18;;;5.78;;
73779;SDS011;62093;37.614;15.072;2023-07-16T04:40:22;9.90;;;5.97;;
73779;SDS011;62093;37.614;15.072;2023-07-16T04:42:47;9.63;;;6.18;;
73779;SDS011;62093;37.614;15.072;2023-07-16T04:45:13;8.83;;;5.73;;
73779;SDS011;62093;37.614;15.072;2023-07-16T04:47:39;9.93;;;6.13;;
73779;SDS011;62093;37.614;15.072;2023-07-16T04:50:05;9.73;;;6.10;;
73779;SDS011;62093;37.614;15.072;2023-07-16T04:52:31;10.02;;;6.22;;
73779;SDS011;62093;37.614;15.072;2023-07-16T04:54:57;8.83;;;5.53;;
73779;SDS011;62093;37.614;15.072;2023-07-16T04:57:23;8.75;;;5.88;;
73779;SDS011;62093;37.614;15.072;2023-07-16T04:59:49;8.98;;;6.00;;
73779;SDS011;62093;37.614;15.072;2023-07-16T05:02:15;10.50;;;6.37;;
73779;SDS011;62093;37.614;15.072;2023-07-16T05:04:42;9.15;;;6.32;;
73779;SDS011;62093;37.614;15.072;2023-07-16T05:07:09;9.82;;;6.38;;
73779;SDS011;62093;37.614;15.072;2023-07-16T05:09:35;9.63;;;6.20;;
73779;SDS011;62093;37.614;15.072;2023-07-16T05:12:01;9.38;;;6.07;;
73779;SDS011;62093;37.614;15.072;2023-07-16T05:14:28;9.23;;;5.80;;
73779;SDS011;62093;37.614;15.072;2023-07-16T05:16:54;9.40;;;6.20;;
73779;SDS011;62093;37.614;15.072;2023-07-16T05:19:21;9.68;;;6.20;;
73779;SDS011;62093;37.614;15.072;2023-07-16T05:21:47;8.90;;;5.90;;
73779;SDS011;62093;37.614;15.072;2023-07-16T05:24:13;10.50;;;6.27;;
73779;SDS011;62093;37.614;15.072;2023-07-16T05:26:39;9.60;;;6.00;;
73779;SDS011;62093;37.614;15.072;2023-07-16T05:29:04;9.05;;;5.80;;
73779;SDS011;62093;37.614;15.072;2023-07-16T05:31:30;10.17;;;6.00;;
73779;SDS011;62093;37.614;15.072;2023-07-16T05:33:56;8.73;;;5.78;;
73779;SDS011;62093;37.614;15.072;2023-07-16T05:36:22;9.60;;;6.10;;
73779;SDS011;62093;37.614;15.072;2023-07-16T05:38:48;10.60;;;6.38;;
73779;SDS011;62093;37.614;15.072;2023-07-16T05:41:13;9.73;;;6.20;;
73779;SDS011;62093;37.614;15.072;2023-07-16T05:43:39;9.32;;;6.57;;
73779;SDS011;62093;37.614;15.072;2023-07-16T05:46:05;9.32;;;6.10;;
73779;SDS011;62093;37.614;15.072;2023-07-16T05:48:31;10.13;;;6.28;;
73779;SDS011;62093;37.614;15.072;2023-07-16T05:50:57;9.83;;;6.70;;
73779;SDS011;62093;37.614;15.072;2023-07-16T05:53:23;9.52;;;6.43;;
73779;SDS011;62093;37.614;15.072;2023-07-16T05:55:49;9.33;;;5.90;;
73779;SDS011;62093;37.614;15.072;2023-07-16T05:58:16;9.40;;;6.20;;
73779;SDS011;62093;37.614;15.072;2023-07-16T06:00:42;8.80;;;5.80;;
73779;SDS011;62093;37.614;15.072;2023-07-16T06:03:08;10.10;;;6.13;;
73779;SDS011;62093;37.614;15.072;2023-07-16T06:05:34;10.18;;;6.20;;
73779;SDS011;62093;37.614;15.072;2023-07-16T06:08:00;10.00;;;5.95;;
73779;SDS011;62093;37.614;15.072;2023-07-16T06:10:26;8.77;;;5.53;;
73779;SDS011;62093;37.614;15.072;2023-07-16T06:12:52;9.35;;;5.43;;
73779;SDS011;62093;37.614;15.072;2023-07-16T06:15:18;12.15;;;6.60;;
73779;SDS011;62093;37.614;15.072;2023-07-16T06:17:44;9.43;;;6.00;;
73779;SDS011;62093;37.614;15.072;2023-07-16T06:20:10;8.77;;;5.60;;
73779;SDS011;62093;37.614;15.072;2023-07-16T06:22:36;9.68;;;5.82;;
73779;SDS011;62093;37.614;15.072;2023-07-16T06:25:02;9.35;;;6.05;;
73779;SDS011;62093;37.614;15.072;2023-07-16T06:27:28;9.83;;;5.80;;
73779;SDS011;62093;37.614;15.072;2023-07-16T06:29:54;9.55;;;5.95;;
73779;SDS011;62093;37.614;15.072;2023-07-16T06:32:19;9.07;;;5.80;;
73779;SDS011;62093;37.614;15.072;2023-07-16T06:34:45;10.33;;;6.17;;
73779;SDS011;62093;37.614;15.072;2023-07-16T06:37:11;8.85;;;5.95;;
73779;SDS011;62093;37.614;15.072;2023-07-16T06:39:37;9.38;;;5.57;;
73779;SDS011;62093;37.614;15.072;2023-07-16T06:42:03;9.77;;;5.70;;
73779;SDS011;62093;37.614;15.072;2023-07-16T06:44:29;9.98;;;6.47;;
73779;SDS011;62093;37.614;15.072;2023-07-16T06:46:55;8.77;;;5.83;;
73779;SDS011;62093;37.614;15.072;2023-07-16T06:49:22;9.67;;;6.00;;
73779;SDS011;62093;37.614;15.072;2023-07-16T06:51:47;9.75;;;5.95;;
73779;SDS011;62093;37.614;15.072;2023-07-16T06:54:13;9.27;;;5.65;;
73779;SDS011;62093;37.614;15.072;2023-07-16T06:56:39;9.57;;;5.70;;
73779;SDS011;62093;37.614;15.072;2023-07-16T06:59:05;9.27;;;6.00;;
73779;SDS011;62093;37.614;15.072;2023-07-16T07:01:31;9.27;;;5.75;;
73779;SDS011;62093;37.614;15.072;2023-07-16T07:03:56;8.40;;;5.97;;
73779;SDS011;62093;37.614;15.072;2023-07-16T07:06:22;9.55;;;5.75;;
73779;SDS011;62093;37.614;15.072;2023-07-16T07:08:48;10.17;;;6.47;;
73779;SDS011;62093;37.614;15.072;2023-07-16T07:11:14;9.05;;;6.05;;
73779;SDS011;62093;37.614;15.072;2023-07-16T07:13:39;9.03;;;5.70;;
73779;SDS011;62093;37.614;15.072;2023-07-16T07:16:05;10.50;;;7.20;;
73779;SDS011;62093;37.614;15.072;2023-07-16T07:18:31;8.70;;;5.70;;
73779;SDS011;62093;37.614;15.072;2023-07-16T07:20:57;8.60;;;5.40;;
73779;SDS011;62093;37.614;15.072;2023-07-16T07:23:22;8.18;;;5.15;;
73779;SDS011;62093;37.614;15.072;2023-07-16T07:25:49;8.97;;;5.67;;
73779;SDS011;62093;37.614;15.072;2023-07-16T07:28:16;8.85;;;5.82;;
73779;SDS011;62093;37.614;15.072;2023-07-16T07:30:42;9.13;;;5.50;;
73779;SDS011;62093;37.614;15.072;2023-07-16T07:33:09;9.85;;;6.30;;
73779;SDS011;62093;37.614;15.072;2023-07-16T07:35:34;10.40;;;6.10;;
73779;SDS011;62093;37.614;15.072;2023-07-16T07:38:00;9.10;;;6.10;;
73779;SDS011;62093;37.614;15.072;2023-07-16T07:40:26;9.23;;;6.32;;
73779;SDS011;62093;37.614;15.072;2023-07-16T07:42:52;9.00;;;5.53;;
73779;SDS011;62093;37.614;15.072;2023-07-16T07:45:18;10.38;;;6.50;;
73779;SDS011;62093;37.614;15.072;2023-07-16T07:47:44;9.00;;;5.97;;
73779;SDS011;62093;37.614;15.072;2023-07-16T07:50:10;9.27;;;5.90;;
73779;SDS011;62093;37.614;15.072;2023-07-16T07:52:36;9.13;;;5.63;;
73779;SDS011;62093;37.614;15.072;2023-07-16T07:55:02;8.98;;;5.53;;
73779;SDS011;62093;37.614;15.072;2023-07-16T07:57:29;9.32;;;5.70;;
73779;SDS011;62093;37.614;15.072;2023-07-16T07:59:55;9.23;;;5.70;;
73779;SDS011;62093;37.614;15.072;2023-07-16T08:02:24;9.10;;;5.30;;
73779;SDS011;62093;37.614;15.072;2023-07-16T08:04:54;8.43;;;5.38;;
73779;SDS011;62093;37.614;15.072;2023-07-16T08:07:21;9.52;;;5.75;;
73779;SDS011;62093;37.614;15.072;2023-07-16T08:09:47;10.20;;;5.97;;
73779;SDS011;62093;37.614;15.072;2023-07-16T08:12:14;8.07;;;5.20;;
73779;SDS011;62093;37.614;15.072;2023-07-16T08:14:40;9.35;;;6.10;;
73779;SDS011;62093;37.614;15.072;2023-07-16T08:17:07;8.98;;;5.65;;
73779;SDS011;62093;37.614;15.072;2023-07-16T08:19:33;8.23;;;5.47;;
73779;SDS011;62093;37.614;15.072;2023-07-16T08:21:59;8.60;;;5.50;;
73779;SDS011;62093;37.614;15.072;2023-07-16T08:24:25;8.13;;;5.27;;
73779;SDS011;62093;37.614;15.072;2023-07-16T08:26:51;9.32;;;6.00;;
73779;SDS011;62093;37.614;15.072;2023-07-16T08:29:16;9.38;;;5.72;;
73779;SDS011;62093;37.614;15.072;2023-07-16T08:31:42;9.37;;;6.10;;
73779;SDS011;62093;37.614;15.072;2023-07-16T08:34:08;9.07;;;5.88;;
73779;SDS011;62093;37.614;15.072;2023-07-16T08:36:34;8.48;;;6.05;;
73779;SDS011;62093;37.614;15.072;2023-07-16T08:39:01;8.97;;;5.70;;
73779;SDS011;62093;37.614;15.072;2023-07-16T08:41:27;8.88;;;5.40;;
73779;SDS011;62093;37.614;15.072;2023-07-16T08:43:54;9.02;;;5.30;;
73779;SDS011;62093;37.614;15.072;2023-07-16T08:46:20;8.52;;;5.47;;
73779;SDS011;62093;37.614;15.072;2023-07-16T08:48:46;9.10;;;5.75;;
73779;SDS011;62093;37.614;15.072;2023-07-16T08:51:14;9.33;;;5.53;;
73779;SDS011;62093;37.614;15.072;2023-07-16T08:53:41;9.65;;;5.90;;
73779;SDS011;62093;37.614;15.072;2023-07-16T08:56:08;8.98;;;5.68;;
73779;SDS011;62093;37.614;15.072;2023-07-16T08:58:34;8.57;;;5.18;;
73779;SDS011;62093;37.614;15.072;2023-07-16T09:01:03;9.27;;;5.65;;
73779;SDS011;62093;37.614;15.072;2023-07-16T09:03:30;9.07;;;5.67;;
73779;SDS011;62093;37.614;15.072;2023-07-16T09:05:56;9.48;;;6.15;;
73779;SDS011;62093;37.614;15.072;2023-07-16T09:08:22;9.32;;;5.60;;
73779;SDS011;62093;37.614;15.072;2023-07-16T09:10:54;8.95;;;5.70;;
73779;SDS011;62093;37.614;15.072;2023-07-16T09:13:21;9.13;;;5.60;;
73779;SDS011;62093;37.614;15.072;2023-07-16T09:15:52;8.77;;;5.88;;
73779;SDS011;62093;37.614;15.072;2023-07-16T09:18:20;9.13;;;5.43;;
73779;SDS011;62093;37.614;15.072;2023-07-16T09:20:47;9.15;;;5.82;;
73779;SDS011;62093;37.614;15.072;2023-07-16T09:23:16;9.13;;;6.00;;
73779;SDS011;62093;37.614;15.072;2023-07-16T09:25:43;9.63;;;5.93;;
73779;SDS011;62093;37.614;15.072;2023-07-16T09:28:09;7.88;;;5.18;;
73779;SDS011;62093;37.614;15.072;2023-07-16T09:30:34;9.20;;;5.72;;
73779;SDS011;62093;37.614;15.072;2023-07-16T09:35:56;8.63;;;5.75;;
73779;SDS011;62093;37.614;15.072;2023-07-16T09:38:22;8.82;;;5.70;;
73779;SDS011;62093;37.614;15.072;2023-07-16T09:40:49;10.00;;;5.97;;
73779;SDS011;62093;37.614;15.072;2023-07-16T09:43:17;8.97;;;5.47;;
73779;SDS011;62093;37.614;15.072;2023-07-16T09:45:43;9.05;;;5.50;;
73779;SDS011;62093;37.614;15.072;2023-07-16T09:48:09;8.35;;;5.10;;
73779;SDS011;62093;37.614;15.072;2023-07-16T09:50:36;9.27;;;5.55;;
73779;SDS011;62093;37.614;15.072;2023-07-16T09:53:05;9.23;;;5.47;;
73779;SDS011;62093;37.614;15.072;2023-07-16T09:55:33;9.00;;;5.73;;
73779;SDS011;62093;37.614;15.072;2023-07-16T09:58:00;8.55;;;5.28;;
73779;SDS011;62093;37.614;15.072;2023-07-16T10:00:28;8.65;;;5.60;;
73779;SDS011;62093;37.614;15.072;2023-07-16T10:02:55;9.32;;;5.80;;
73779;SDS011;62093;37.614;15.072;2023-07-16T10:05:24;8.43;;;5.68;;
73779;SDS011;62093;37.614;15.072;2023-07-16T10:07:52;8.90;;;5.33;;
73779;SDS011;62093;37.614;15.072;2023-07-16T10:10:20;8.60;;;5.40;;
73779;SDS011;62093;37.614;15.072;2023-07-16T10:13:07;7.65;;;5.05;;
73779;SDS011;62093;37.614;15.072;2023-07-16T10:15:32;8.10;;;5.20;;
73779;SDS011;62093;37.614;15.072;2023-07-16T10:17:58;9.40;;;5.85;;
73779;SDS011;62093;37.614;15.072;2023-07-16T10:20:32;8.80;;;5.40;;
73779;SDS011;62093;37.614;15.072;2023-07-16T10:23:20;9.57;;;5.57;;
73779;SDS011;62093;37.614;15.072;2023-07-16T10:25:58;9.13;;;5.65;;
73779;SDS011;62093;37.614;15.072;2023-07-16T10:28:24;8.73;;;5.63;;
73779;SDS011;62093;37.614;15.072;2023-07-16T10:30:51;8.77;;;5.25;;
73779;SDS011;62093;37.614;15.072;2023-07-16T10:33:16;8.18;;;5.20;;
73779;SDS011;62093;37.614;15.072;2023-07-16T10:35:44;9.07;;;5.30;;
73779;SDS011;62093;37.614;15.072;2023-07-16T10:38:11;8.10;;;5.00;;
73779;SDS011;62093;37.614;15.072;2023-07-16T10:40:40;9.33;;;5.63;;
73779;SDS011;62093;37.614;15.072;2023-07-16T10:43:07;9.05;;;5.30;;
73779;SDS011;62093;37.614;15.072;2023-07-16T10:45:33;8.85;;;5.70;;
73779;SDS011;62093;37.614;15.072;2023-07-16T10:47:59;9.37;;;5.70;;
73779;SDS011;62093;37.614;15.072;2023-07-16T10:50:25;8.40;;;5.55;;
73779;SDS011;62093;37.614;15.072;2023-07-16T10:52:56;9.50;;;5.32;;
73779;SDS011;62093;37.614;15.072;2023-07-16T10:55:22;8.25;;;5.10;;
73779;SDS011;62093;37.614;15.072;2023-07-16T10:57:49;8.57;;;5.50;;
73779;SDS011;62093;37.614;15.072;2023-07-16T11:00:16;8.43;;;5.63;;
73779;SDS011;62093;37.614;15.072;2023-07-16T11:02:43;9.13;;;5.75;;
73779;SDS011;62093;37.614;15.072;2023-07-16T11:05:11;9.25;;;5.70;;
73779;SDS011;62093;37.614;15.072;2023-07-16T11:07:37;8.85;;;5.72;;
73779;SDS011;62093;37.614;15.072;2023-07-16T11:10:07;8.70;;;5.40;;
73779;SDS011;62093;37.614;15.072;2023-07-16T11:12:33;8.95;;;5.13;;
73779;SDS011;62093;37.614;15.072;2023-07-16T11:14:59;7.60;;;5.03;;
73779;SDS011;62093;37.614;15.072;2023-07-16T11:17:25;8.32;;;5.18;;
73779;SDS011;62093;37.614;15.072;2023-07-16T11:19:52;8.83;;;5.73;;
73779;SDS011;62093;37.614;15.072;2023-07-16T11:22:19;9.40;;;5.10;;
73779;SDS011;62093;37.614;15.072;2023-07-16T11:24:45;8.77;;;5.38;;
73779;SDS011;62093;37.614;15.072;2023-07-16T11:27:22;8.52;;;5.43;;
73779;SDS011;62093;37.614;15.072;2023-07-16T11:29:50;8.80;;;5.07;;
73779;SDS011;62093;37.614;15.072;2023-07-16T11:32:27;9.23;;;5.20;;
73779;SDS011;62093;37.614;15.072;2023-07-16T11:34:54;7.97;;;4.88;;
73779;SDS011;62093;37.614;15.072;2023-07-16T11:37:21;8.75;;;5.20;;
73779;SDS011;62093;37.614;15.072;2023-07-16T11:39:49;8.88;;;5.35;;
73779;SDS011;62093;37.614;15.072;2023-07-16T11:42:17;8.57;;;5.17;;
73779;SDS011;62093;37.614;15.072;2023-07-16T11:44:49;8.25;;;5.57;;
73779;SDS011;62093;37.614;15.072;2023-07-16T11:47:15;8.70;;;5.32;;
73779;SDS011;62093;37.614;15.072;2023-07-16T11:49:41;8.50;;;5.23;;
73779;SDS011;62093;37.614;15.072;2023-07-16T11:52:07;8.45;;;5.13;;
73779;SDS011;62093;37.614;15.072;2023-07-16T11:54:33;9.45;;;5.03;;
73779;SDS011;62093;37.614;15.072;2023-07-16T11:56:58;8.63;;;5.47;;
73779;SDS011;62093;37.614;15.072;2023-07-16T11:59:24;9.30;;;5.27;;
73779;SDS011;62093;37.614;15.072;2023-07-16T12:01:50;8.80;;;5.28;;
73779;SDS011;62093;37.614;15.072;2023-07-16T12:04:16;8.43;;;5.00;;
73779;SDS011;62093;37.614;15.072;2023-07-16T12:06:43;8.85;;;5.28;;
73779;SDS011;62093;37.614;15.072;2023-07-16T12:09:09;9.57;;;5.30;;
73779;SDS011;62093;37.614;15.072;2023-07-16T12:11:35;8.38;;;5.00;;
73779;SDS011;62093;37.614;15.072;2023-07-16T12:14:03;8.95;;;5.25;;
73779;SDS011;62093;37.614;15.072;2023-07-16T12:16:30;7.53;;;4.97;;
73779;SDS011;62093;37.614;15.072;2023-07-16T12:18:56;8.75;;;5.22;;
73779;SDS011;62093;37.614;15.072;2023-07-16T12:21:22;7.93;;;4.85;;
73779;SDS011;62093;37.614;15.072;2023-07-16T12:23:48;8.60;;;5.17;;
73779;SDS011;62093;37.614;15.072;2023-07-16T12:26:14;9.13;;;5.50;;
73779;SDS011;62093;37.614;15.072;2023-07-16T12:28:40;9.15;;;5.35;;
73779;SDS011;62093;37.614;15.072;2023-07-16T12:31:05;8.10;;;4.87;;
73779;SDS011;62093;37.614;15.072;2023-07-16T12:33:31;7.78;;;4.90;;
73779;SDS011;62093;37.614;15.072;2023-07-16T12:35:57;9.02;;;5.28;;
73779;SDS011;62093;37.614;15.072;2023-07-16T12:38:23;9.17;;;5.40;;
73779;SDS011;62093;37.614;15.072;2023-07-16T12:40:49;8.25;;;5.25;;
73779;SDS011;62093;37.614;15.072;2023-07-16T12:43:14;8.07;;;4.90;;
73779;SDS011;62093;37.614;15.072;2023-07-16T12:45:40;8.55;;;5.07;;
73779;SDS011;62093;37.614;15.072;2023-07-16T12:48:06;10.20;;;5.25;;
73779;SDS011;62093;37.614;15.072;2023-07-16T12:50:32;8.90;;;5.40;;
73779;SDS011;62093;37.614;15.072;2023-07-16T12:52:58;8.38;;;5.38;;
73779;SDS011;62093;37.614;15.072;2023-07-16T12:55:23;9.13;;;5.60;;
73779;SDS011;62093;37.614;15.072;2023-07-16T12:57:50;8.60;;;5.13;;
73779;SDS011;62093;37.614;15.072;2023-07-16T13:00:16;7.95;;;4.85;;
73779;SDS011;62093;37.614;15.072;2023-07-16T13:02:42;8.35;;;4.82;;
73779;SDS011;62093;37.614;15.072;2023-07-16T13:05:07;8.50;;;5.13;;
73779;SDS011;62093;37.614;15.072;2023-07-16T13:07:33;9.07;;;5.47;;
73779;SDS011;62093;37.614;15.072;2023-07-16T13:09:59;8.33;;;5.07;;
73779;SDS011;62093;37.614;15.072;2023-07-16T13:12:25;9.13;;;4.97;;
73779;SDS011;62093;37.614;15.072;2023-07-16T13:14:51;8.85;;;5.32;;
73779;SDS011;62093;37.614;15.072;2023-07-16T13:17:17;9.53;;;5.17;;
73779;SDS011;62093;37.614;15.072;2023-07-16T13:19:44;8.30;;;4.97;;
73779;SDS011;62093;37.614;15.072;2023-07-16T13:22:11;8.45;;;5.15;;
73779;SDS011;62093;37.614;15.072;2023-07-16T13:24:37;8.85;;;5.25;;
73779;SDS011;62093;37.614;15.072;2023-07-16T13:27:03;7.20;;;4.57;;
73779;SDS011;62093;37.614;15.072;2023-07-16T13:29:29;8.75;;;4.95;;
73779;SDS011;62093;37.614;15.072;2023-07-16T13:31:54;8.98;;;5.10;;
73779;SDS011;62093;37.614;15.072;2023-07-16T13:34:20;8.37;;;5.00;;
73779;SDS011;62093;37.614;15.072;2023-07-16T13:36:46;8.20;;;4.95;;
73779;SDS011;62093;37.614;15.072;2023-07-16T13:39:12;8.43;;;5.07;;
73779;SDS011;62093;37.614;15.072;2023-07-16T13:41:39;8.80;;;5.00;;
73779;SDS011;62093;37.614;15.072;2023-07-16T13:44:05;7.35;;;4.70;;
73779;SDS011;62093;37.614;15.072;2023-07-16T13:46:30;8.40;;;4.80;;
73779;SDS011;62093;37.614;15.072;2023-07-16T13:48:56;8.05;;;5.00;;
73779;SDS011;62093;37.614;15.072;2023-07-16T13:51:22;8.03;;;5.00;;
73779;SDS011;62093;37.614;15.072;2023-07-16T13:53:48;8.10;;;4.88;;
73779;SDS011;62093;37.614;15.072;2023-07-16T13:56:14;8.67;;;4.70;;
73779;SDS011;62093;37.614;15.072;2023-07-16T13:58:40;8.73;;;5.00;;
73779;SDS011;62093;37.614;15.072;2023-07-16T14:01:06;8.23;;;5.13;;
73779;SDS011;62093;37.614;15.072;2023-07-16T14:03:31;8.07;;;5.03;;
73779;SDS011;62093;37.614;15.072;2023-07-16T14:05:57;7.18;;;4.60;;
73779;SDS011;62093;37.614;15.072;2023-07-16T14:08:23;8.00;;;4.70;;
73779;SDS011;62093;37.614;15.072;2023-07-16T14:10:49;8.67;;;4.97;;
73779;SDS011;62093;37.614;15.072;2023-07-16T14:13:15;8.50;;;5.10;;
73779;SDS011;62093;37.614;15.072;2023-07-16T14:15:41;8.68;;;4.85;;
73779;SDS011;62093;37.614;15.072;2023-07-16T14:18:07;8.35;;;5.32;;
73779;SDS011;62093;37.614;15.072;2023-07-16T14:20:33;8.10;;;4.93;;
73779;SDS011;62093;37.614;15.072;2023-07-16T14:22:59;8.05;;;4.97;;
73779;SDS011;62093;37.614;15.072;2023-07-16T14:25:25;7.78;;;4.90;;
73779;SDS011;62093;37.614;15.072;2023-07-16T14:27:51;8.27;;;4.73;;
73779;SDS011;62093;37.614;15.072;2023-07-16T14:30:16;8.43;;;4.60;;
73779;SDS011;62093;37.614;15.072;2023-07-16T14:32:42;7.97;;;4.73;;
73779;SDS011;62093;37.614;15.072;2023-07-16T14:35:08;7.38;;;4.40;;
73779;SDS011;62093;37.614;15.072;2023-07-16T14:37:34;8.30;;;5.25;;
73779;SDS011;62093;37.614;15.072;2023-07-16T14:40:00;8.50;;;5.25;;